sensor_id;sensor_type;location;lat;lon;timestamp;pressure;altitude;pressure_sealevel;temperature;humidity
26376;BME280;30544;42.196;24.336;2024-01-16T00:00:40;97838.50;;;3.22;67.15
26376;BME280;30544;42.196;24.336;2024-01-16T00:03:08;97823.81;;;3.17;66.84
26376;BME280;30544;42.196;24.336;2024-01-16T00:05:35;97828.69;;;3.15;66.77
26376;BME280;30544;42.196;24.336;2024-01-16T00:08:01;97832.75;;;3.12;66.34
26376;BME280;30544;42.196;24.336;2024-01-16T00:10:28;97832.63;;;3.07;66.94
26376;BME280;30544;42.196;24.336;2024-01-16T00:12:55;97838.56;;;3.04;66.94
26376;BME280;30544;42.196;24.336;2024-01-16T00:15:21;97852.72;;;3.01;66.31
26376;BME280;30544;42.196;24.336;2024-01-16T00:17:48;97837.44;;;2.93;67.02
26376;BME280;30544;42.196;24.336;2024-01-16T00:20:18;97831.59;;;2.90;67.46
26376;BME280;30544;42.196;24.336;2024-01-16T00:22:44;97832.28;;;2.85;67.64
26376;BME280;30544;42.196;24.336;2024-01-16T00:25:11;97832.16;;;2.80;67.19
26376;BME280;30544;42.196;24.336;2024-01-16T00:27:38;97840.22;;;2.75;68.09
26376;BME280;30544;42.196;24.336;2024-01-16T00:30:05;97838.19;;;2.70;67.18
26376;BME280;30544;42.196;24.336;2024-01-16T00:32:32;97834.22;;;2.66;68.17
26376;BME280;30544;42.196;24.336;2024-01-16T00:34:58;97834.56;;;2.58;67.81
26376;BME280;30544;42.196;24.336;2024-01-16T00:37:26;97826.56;;;2.57;67.92
26376;BME280;30544;42.196;24.336;2024-01-16T00:39:53;97820.09;;;2.51;68.84
26376;BME280;30544;42.196;24.336;2024-01-16T00:42:19;97812.34;;;2.48;68.05
26376;BME280;30544;42.196;24.336;2024-01-16T00:44:46;97808.28;;;2.39;69.27
26376;BME280;30544;42.196;24.336;2024-01-16T00:47:13;97798.00;;;2.34;68.19
26376;BME280;30544;42.196;24.336;2024-01-16T00:49:39;97792.16;;;2.31;69.10
26376;BME280;30544;42.196;24.336;2024-01-16T00:52:06;97795.34;;;2.28;68.41
26376;BME280;30544;42.196;24.336;2024-01-16T00:54:34;97813.53;;;2.22;68.31
26376;BME280;30544;42.196;24.336;2024-01-16T00:57:01;97821.78;;;2.16;68.31
26376;BME280;30544;42.196;24.336;2024-01-16T00:59:27;97817.84;;;2.11;69.47
26376;BME280;30544;42.196;24.336;2024-01-16T01:01:54;97809.88;;;2.10;69.27
26376;BME280;30544;42.196;24.336;2024-01-16T01:04:21;97805.69;;;2.07;68.70
26376;BME280;30544;42.196;24.336;2024-01-16T01:06:47;97804.47;;;2.03;68.92
26376;BME280;30544;42.196;24.336;2024-01-16T01:09:15;97804.91;;;2.00;69.68
26376;BME280;30544;42.196;24.336;2024-01-16T01:11:43;97800.13;;;1.96;69.97
26376;BME280;30544;42.196;24.336;2024-01-16T01:14:10;97794.06;;;1.94;69.96
26376;BME280;30544;42.196;24.336;2024-01-16T01:16:36;97795.59;;;1.90;69.57
26376;BME280;30544;42.196;24.336;2024-01-16T01:19:03;97806.13;;;1.86;70.86
26376;BME280;30544;42.196;24.336;2024-01-16T01:21:30;97800.50;;;1.81;71.07
26376;BME280;30544;42.196;24.336;2024-01-16T01:23:56;97801.94;;;1.84;70.74
26376;BME280;30544;42.196;24.336;2024-01-16T01:26:23;97806.56;;;1.83;71.54
26376;BME280;30544;42.196;24.336;2024-01-16T01:28:51;97805.97;;;1.81;71.33
26376;BME280;30544;42.196;24.336;2024-01-16T01:31:18;97809.16;;;1.78;70.38
26376;BME280;30544;42.196;24.336;2024-01-16T01:33:44;97829.56;;;1.75;70.77
26376;BME280;30544;42.196;24.336;2024-01-16T01:36:11;97820.78;;;1.73;71.27
26376;BME280;30544;42.196;24.336;2024-01-16T01:38:38;97821.22;;;1.70;70.88
26376;BME280;30544;42.196;24.336;2024-01-16T01:41:04;97825.22;;;1.68;72.04
26376;BME280;30544;42.196;24.336;2024-01-16T01:43:31;97809.03;;;1.66;71.30
26376;BME280;30544;42.196;24.336;2024-01-16T01:46:08;97815.34;;;1.67;71.65
26376;BME280;30544;42.196;24.336;2024-01-16T01:48:35;97819.31;;;1.71;72.40
26376;BME280;30544;42.196;24.336;2024-01-16T01:51:02;97815.53;;;1.72;72.67
26376;BME280;30544;42.196;24.336;2024-01-16T01:53:29;97811.97;;;1.71;71.68
26376;BME280;30544;42.196;24.336;2024-01-16T01:55:57;97803.16;;;1.69;71.59
26376;BME280;30544;42.196;24.336;2024-01-16T01:58:24;97793.28;;;1.68;71.75
26376;BME280;30544;42.196;24.336;2024-01-16T02:00:50;97785.28;;;1.67;71.78
26376;BME280;30544;42.196;24.336;2024-01-16T02:03:18;97772.69;;;1.66;72.50
26376;BME280;30544;42.196;24.336;2024-01-16T02:05:46;97784.44;;;1.66;72.45
26376;BME280;30544;42.196;24.336;2024-01-16T02:08:13;97788.41;;;1.70;73.08
26376;BME280;30544;42.196;24.336;2024-01-16T02:10:39;97792.38;;;1.74;72.52
26376;BME280;30544;42.196;24.336;2024-01-16T02:13:09;97803.84;;;1.83;73.32
26376;BME280;30544;42.196;24.336;2024-01-16T02:15:36;97782.75;;;1.90;73.42
26376;BME280;30544;42.196;24.336;2024-01-16T02:18:04;97788.97;;;1.97;72.85
26376;BME280;30544;42.196;24.336;2024-01-16T02:20:32;97784.88;;;2.06;73.12
26376;BME280;30544;42.196;24.336;2024-01-16T02:22:59;97806.66;;;2.13;72.61
26376;BME280;30544;42.196;24.336;2024-01-16T02:25:29;97795.03;;;2.18;72.81
26376;BME280;30544;42.196;24.336;2024-01-16T02:27:55;97803.66;;;2.21;72.43
26376;BME280;30544;42.196;24.336;2024-01-16T02:30:22;97794.97;;;2.24;72.20
26376;BME280;30544;42.196;24.336;2024-01-16T02:32:49;97786.31;;;2.27;72.15
26376;BME280;30544;42.196;24.336;2024-01-16T02:35:16;97784.41;;;2.28;72.37
26376;BME280;30544;42.196;24.336;2024-01-16T02:37:43;97784.16;;;2.29;71.67
26376;BME280;30544;42.196;24.336;2024-01-16T02:40:10;97793.69;;;2.27;72.47
26376;BME280;30544;42.196;24.336;2024-01-16T02:42:38;97793.69;;;2.27;71.53
26376;BME280;30544;42.196;24.336;2024-01-16T02:45:05;97785.59;;;2.32;72.13
26376;BME280;30544;42.196;24.336;2024-01-16T02:47:32;97780.91;;;2.39;72.34
26376;BME280;30544;42.196;24.336;2024-01-16T02:49:59;97790.09;;;2.45;71.66
26376;BME280;30544;42.196;24.336;2024-01-16T02:52:26;97796.41;;;2.45;71.77
26376;BME280;30544;42.196;24.336;2024-01-16T02:54:53;97807.19;;;2.58;72.12
26376;BME280;30544;42.196;24.336;2024-01-16T02:57:19;97802.44;;;2.65;71.31
26376;BME280;30544;42.196;24.336;2024-01-16T02:59:47;97817.97;;;2.71;71.51
26376;BME280;30544;42.196;24.336;2024-01-16T03:02:14;97814.81;;;2.68;70.44
26376;BME280;30544;42.196;24.336;2024-01-16T03:04:41;97829.19;;;2.82;71.00
26376;BME280;30544;42.196;24.336;2024-01-16T03:07:07;97828.44;;;2.75;70.40
26376;BME280;30544;42.196;24.336;2024-01-16T03:09:34;97823.41;;;2.90;70.38
26376;BME280;30544;42.196;24.336;2024-01-16T03:12:03;97815.44;;;3.00;69.61
26376;BME280;30544;42.196;24.336;2024-01-16T03:14:30;97806.91;;;3.08;69.03
26376;BME280;30544;42.196;24.336;2024-01-16T03:17:01;97819.06;;;3.12;69.10
26376;BME280;30544;42.196;24.336;2024-01-16T03:19:28;97819.66;;;3.14;67.52
26376;BME280;30544;42.196;24.336;2024-01-16T03:21:55;97819.66;;;3.14;67.13
26376;BME280;30544;42.196;24.336;2024-01-16T03:24:21;97835.38;;;3.19;67.57
26376;BME280;30544;42.196;24.336;2024-01-16T03:26:48;97841.25;;;3.22;67.51
26376;BME280;30544;42.196;24.336;2024-01-16T03:29:15;97829.81;;;3.25;67.17
26376;BME280;30544;42.196;24.336;2024-01-16T03:31:41;97838.63;;;3.27;66.96
26376;BME280;30544;42.196;24.336;2024-01-16T03:34:09;97852.47;;;3.32;66.32
26376;BME280;30544;42.196;24.336;2024-01-16T03:36:36;97841.25;;;3.34;66.92
26376;BME280;30544;42.196;24.336;2024-01-16T03:39:03;97840.59;;;3.39;66.36
26376;BME280;30544;42.196;24.336;2024-01-16T03:41:30;97849.88;;;3.38;66.71
26376;BME280;30544;42.196;24.336;2024-01-16T03:43:57;97843.09;;;3.40;66.89
26376;BME280;30544;42.196;24.336;2024-01-16T03:46:24;97862.50;;;3.39;66.11
26376;BME280;30544;42.196;24.336;2024-01-16T03:48:50;97847.97;;;3.38;65.78
26376;BME280;30544;42.196;24.336;2024-01-16T03:51:19;97842.50;;;3.38;65.52
26376;BME280;30544;42.196;24.336;2024-01-16T03:53:46;97850.84;;;3.43;65.68
26376;BME280;30544;42.196;24.336;2024-01-16T03:56:15;97864.31;;;3.45;66.53
26376;BME280;30544;42.196;24.336;2024-01-16T03:58:42;97855.13;;;3.39;66.20
26376;BME280;30544;42.196;24.336;2024-01-16T04:01:09;97857.38;;;3.42;66.60
26376;BME280;30544;42.196;24.336;2024-01-16T04:03:35;97872.81;;;3.25;66.50
26376;BME280;30544;42.196;24.336;2024-01-16T04:06:03;97873.66;;;3.25;66.63
26376;BME280;30544;42.196;24.336;2024-01-16T04:08:33;97869.31;;;3.36;65.89
26376;BME280;30544;42.196;24.336;2024-01-16T04:11:00;97882.28;;;3.41;66.38
26376;BME280;30544;42.196;24.336;2024-01-16T04:13:27;97888.13;;;3.44;66.18
26376;BME280;30544;42.196;24.336;2024-01-16T04:15:53;97886.00;;;3.46;65.74
26376;BME280;30544;42.196;24.336;2024-01-16T04:18:20;97891.13;;;3.43;66.54
26376;BME280;30544;42.196;24.336;2024-01-16T04:20:46;97909.72;;;3.52;65.84
26376;BME280;30544;42.196;24.336;2024-01-16T04:23:13;97910.47;;;3.59;65.73
26376;BME280;30544;42.196;24.336;2024-01-16T04:25:42;97908.09;;;3.63;65.65
26376;BME280;30544;42.196;24.336;2024-01-16T04:28:08;97917.28;;;3.69;65.56
26376;BME280;30544;42.196;24.336;2024-01-16T04:30:35;97916.44;;;3.68;65.23
26376;BME280;30544;42.196;24.336;2024-01-16T04:33:02;97916.00;;;3.71;65.93
26376;BME280;30544;42.196;24.336;2024-01-16T04:35:29;97920.41;;;3.72;65.26
26376;BME280;30544;42.196;24.336;2024-01-16T04:37:55;97921.00;;;3.74;65.13
26376;BME280;30544;42.196;24.336;2024-01-16T04:40:22;97937.94;;;3.71;65.32
26376;BME280;30544;42.196;24.336;2024-01-16T04:42:50;97941.03;;;3.75;65.13
26376;BME280;30544;42.196;24.336;2024-01-16T04:45:17;97941.75;;;3.82;65.34
26376;BME280;30544;42.196;24.336;2024-01-16T04:47:44;97947.25;;;3.82;64.97
26376;BME280;30544;42.196;24.336;2024-01-16T04:50:10;97956.22;;;3.89;65.31
26376;BME280;30544;42.196;24.336;2024-01-16T04:52:37;97950.25;;;3.92;65.64
26376;BME280;30544;42.196;24.336;2024-01-16T04:55:04;97946.06;;;3.89;65.31
26376;BME280;30544;42.196;24.336;2024-01-16T04:57:31;97960.16;;;3.93;64.83
26376;BME280;30544;42.196;24.336;2024-01-16T04:59:59;97981.34;;;3.86;65.74
26376;BME280;30544;42.196;24.336;2024-01-16T05:02:26;97984.09;;;3.86;65.56
26376;BME280;30544;42.196;24.336;2024-01-16T05:04:52;97994.22;;;3.85;66.24
26376;BME280;30544;42.196;24.336;2024-01-16T05:07:19;97998.19;;;3.89;66.20
26376;BME280;30544;42.196;24.336;2024-01-16T05:09:46;98009.78;;;3.91;66.00
26376;BME280;30544;42.196;24.336;2024-01-16T05:12:13;98023.81;;;3.83;66.12
26376;BME280;30544;42.196;24.336;2024-01-16T05:14:39;98021.53;;;3.80;66.28
26376;BME280;30544;42.196;24.336;2024-01-16T05:17:07;98036.91;;;3.81;67.54
26376;BME280;30544;42.196;24.336;2024-01-16T05:19:34;98030.22;;;3.77;66.83
26376;BME280;30544;42.196;24.336;2024-01-16T05:22:01;98036.56;;;3.78;67.16
26376;BME280;30544;42.196;24.336;2024-01-16T05:24:28;98044.53;;;3.79;68.00
26376;BME280;30544;42.196;24.336;2024-01-16T05:26:54;98048.50;;;3.83;68.05
26376;BME280;30544;42.196;24.336;2024-01-16T05:29:21;98054.13;;;3.88;67.56
26376;BME280;30544;42.196;24.336;2024-01-16T05:31:47;98055.34;;;3.92;68.71
26376;BME280;30544;42.196;24.336;2024-01-16T05:34:15;98051.81;;;4.04;68.68
26376;BME280;30544;42.196;24.336;2024-01-16T05:36:42;98069.72;;;4.18;69.01
26376;BME280;30544;42.196;24.336;2024-01-16T05:39:09;98071.94;;;4.39;68.79
26376;BME280;30544;42.196;24.336;2024-01-16T05:41:36;98065.75;;;4.56;68.42
26376;BME280;30544;42.196;24.336;2024-01-16T05:44:03;98077.56;;;4.68;69.14
26376;BME280;30544;42.196;24.336;2024-01-16T05:46:30;98077.09;;;4.82;68.42
26376;BME280;30544;42.196;24.336;2024-01-16T05:48:57;98086.19;;;4.95;68.26
26376;BME280;30544;42.196;24.336;2024-01-16T05:51:26;98092.88;;;4.99;68.28
26376;BME280;30544;42.196;24.336;2024-01-16T05:53:53;98097.91;;;5.02;68.69
26376;BME280;30544;42.196;24.336;2024-01-16T05:56:20;98103.16;;;5.15;69.55
26376;BME280;30544;42.196;24.336;2024-01-16T05:58:47;98104.44;;;5.36;71.98
26376;BME280;30544;42.196;24.336;2024-01-16T06:01:13;98120.19;;;5.76;73.04
26376;BME280;30544;42.196;24.336;2024-01-16T06:03:40;98122.75;;;6.06;72.80
26376;BME280;30544;42.196;24.336;2024-01-16T06:06:06;98122.41;;;6.30;72.70
26376;BME280;30544;42.196;24.336;2024-01-16T06:08:35;98128.72;;;6.59;72.55
26376;BME280;30544;42.196;24.336;2024-01-16T06:11:01;98138.38;;;6.90;72.12
26376;BME280;30544;42.196;24.336;2024-01-16T06:13:28;98134.34;;;7.15;71.79
26376;BME280;30544;42.196;24.336;2024-01-16T06:15:57;98146.50;;;7.36;70.92
26376;BME280;30544;42.196;24.336;2024-01-16T06:18:23;98148.31;;;7.64;69.85
26376;BME280;30544;42.196;24.336;2024-01-16T06:20:50;98163.06;;;7.91;68.72
26376;BME280;30544;42.196;24.336;2024-01-16T06:23:17;98168.44;;;8.03;68.75
26376;BME280;30544;42.196;24.336;2024-01-16T06:25:45;98164.44;;;8.15;67.47
26376;BME280;30544;42.196;24.336;2024-01-16T06:28:11;98173.50;;;8.33;67.23
26376;BME280;30544;42.196;24.336;2024-01-16T06:30:38;98178.00;;;8.39;66.03
26376;BME280;30544;42.196;24.336;2024-01-16T06:33:04;98185.28;;;8.45;66.00
26376;BME280;30544;42.196;24.336;2024-01-16T06:35:31;98193.19;;;8.58;65.03
26376;BME280;30544;42.196;24.336;2024-01-16T06:37:58;98199.28;;;8.60;64.65
26376;BME280;30544;42.196;24.336;2024-01-16T06:40:24;98199.91;;;8.67;64.16
26376;BME280;30544;42.196;24.336;2024-01-16T06:42:52;98205.31;;;8.84;63.38
26376;BME280;30544;42.196;24.336;2024-01-16T06:45:19;98213.66;;;8.89;62.76
26376;BME280;30544;42.196;24.336;2024-01-16T06:47:46;98216.28;;;9.01;62.67
26376;BME280;30544;42.196;24.336;2024-01-16T06:50:12;98225.28;;;9.18;61.36
26376;BME280;30544;42.196;24.336;2024-01-16T06:52:39;98231.97;;;9.22;61.59
26376;BME280;30544;42.196;24.336;2024-01-16T06:55:06;98236.34;;;9.18;61.24
26376;BME280;30544;42.196;24.336;2024-01-16T06:57:33;98250.56;;;9.27;60.89
26376;BME280;30544;42.196;24.336;2024-01-16T07:00:01;98255.34;;;9.37;59.48
26376;BME280;30544;42.196;24.336;2024-01-16T07:02:32;98268.59;;;9.34;59.50
26376;BME280;30544;42.196;24.336;2024-01-16T07:04:58;98273.41;;;9.44;58.61
26376;BME280;30544;42.196;24.336;2024-01-16T07:07:25;98289.72;;;9.41;58.88
26376;BME280;30544;42.196;24.336;2024-01-16T07:09:52;98288.03;;;9.40;58.43
26376;BME280;30544;42.196;24.336;2024-01-16T07:12:18;98296.41;;;9.45;58.26
26376;BME280;30544;42.196;24.336;2024-01-16T07:14:45;98302.22;;;9.48;57.79
26376;BME280;30544;42.196;24.336;2024-01-16T07:17:14;98306.50;;;9.61;57.43
26376;BME280;30544;42.196;24.336;2024-01-16T07:19:40;98317.47;;;9.51;57.54
26376;BME280;30544;42.196;24.336;2024-01-16T07:22:07;98320.25;;;9.51;56.79
26376;BME280;30544;42.196;24.336;2024-01-16T07:24:33;98330.44;;;9.45;56.70
26376;BME280;30544;42.196;24.336;2024-01-16T07:27:00;98330.94;;;9.15;57.93
26376;BME280;30544;42.196;24.336;2024-01-16T07:29:28;98346.13;;;9.40;57.00
26376;BME280;30544;42.196;24.336;2024-01-16T07:31:54;98358.66;;;9.42;56.90
26376;BME280;30544;42.196;24.336;2024-01-16T07:34:22;98363.91;;;9.44;57.50
26376;BME280;30544;42.196;24.336;2024-01-16T07:36:50;98374.72;;;9.45;57.61
26376;BME280;30544;42.196;24.336;2024-01-16T07:39:17;98383.34;;;9.49;56.69
26376;BME280;30544;42.196;24.336;2024-01-16T07:41:44;98396.91;;;9.50;56.39
26376;BME280;30544;42.196;24.336;2024-01-16T07:44:10;98397.88;;;9.39;56.16
26376;BME280;30544;42.196;24.336;2024-01-16T07:46:37;98416.28;;;9.50;56.40
26376;BME280;30544;42.196;24.336;2024-01-16T07:49:04;98402.97;;;9.47;56.15
26376;BME280;30544;42.196;24.336;2024-01-16T07:51:32;98414.66;;;9.54;55.98
26376;BME280;30544;42.196;24.336;2024-01-16T07:54:04;98429.47;;;9.65;55.75
26376;BME280;30544;42.196;24.336;2024-01-16T07:56:31;98442.31;;;9.76;55.54
26376;BME280;30544;42.196;24.336;2024-01-16T07:58:58;98448.88;;;9.70;55.38
26376;BME280;30544;42.196;24.336;2024-01-16T08:01:25;98451.38;;;9.72;55.42
26376;BME280;30544;42.196;24.336;2024-01-16T08:03:51;98462.19;;;9.73;55.33
26376;BME280;30544;42.196;24.336;2024-01-16T08:06:18;98464.47;;;9.76;55.64
26376;BME280;30544;42.196;24.336;2024-01-16T08:08:46;98477.50;;;9.76;54.77
26376;BME280;30544;42.196;24.336;2024-01-16T08:11:12;98482.94;;;9.92;55.08
26376;BME280;30544;42.196;24.336;2024-01-16T08:13:39;98483.25;;;9.96;54.17
26376;BME280;30544;42.196;24.336;2024-01-16T08:16:06;98490.78;;;10.06;54.44
26376;BME280;30544;42.196;24.336;2024-01-16T08:18:32;98493.91;;;10.09;54.77
26376;BME280;30544;42.196;24.336;2024-01-16T08:20:59;98503.06;;;10.10;53.38
26376;BME280;30544;42.196;24.336;2024-01-16T08:23:26;98504.84;;;10.21;53.25
26376;BME280;30544;42.196;24.336;2024-01-16T08:25:54;98508.78;;;10.03;52.91
26376;BME280;30544;42.196;24.336;2024-01-16T08:28:20;98510.38;;;10.21;52.84
26376;BME280;30544;42.196;24.336;2024-01-16T08:30:49;98517.16;;;10.08;52.38
26376;BME280;30544;42.196;24.336;2024-01-16T08:33:16;98526.63;;;10.12;52.76
26376;BME280;30544;42.196;24.336;2024-01-16T08:35:43;98522.91;;;10.02;51.91
26376;BME280;30544;42.196;24.336;2024-01-16T08:38:09;98532.31;;;10.01;52.15
26376;BME280;30544;42.196;24.336;2024-01-16T08:40:36;98540.03;;;9.99;51.38
26376;BME280;30544;42.196;24.336;2024-01-16T08:43:04;98540.03;;;9.99;50.92
26376;BME280;30544;42.196;24.336;2024-01-16T08:45:31;98544.19;;;9.96;51.39
26376;BME280;30544;42.196;24.336;2024-01-16T08:47:57;98543.06;;;9.97;50.41
26376;BME280;30544;42.196;24.336;2024-01-16T08:50:24;98539.38;;;10.13;50.67
26376;BME280;30544;42.196;24.336;2024-01-16T08:52:51;98548.66;;;10.24;49.46
26376;BME280;30544;42.196;24.336;2024-01-16T08:55:18;98555.88;;;10.25;49.93
26376;BME280;30544;42.196;24.336;2024-01-16T08:57:44;98565.88;;;10.26;49.94
26376;BME280;30544;42.196;24.336;2024-01-16T09:00:13;98557.94;;;10.40;49.50
26376;BME280;30544;42.196;24.336;2024-01-16T09:02:40;98579.63;;;10.43;49.05
26376;BME280;30544;42.196;24.336;2024-01-16T09:05:07;98572.75;;;10.50;48.58
26376;BME280;30544;42.196;24.336;2024-01-16T09:07:34;98590.06;;;10.63;47.48
26376;BME280;30544;42.196;24.336;2024-01-16T09:10:01;98587.34;;;10.68;47.41
26376;BME280;30544;42.196;24.336;2024-01-16T09:12:28;98591.75;;;10.64;47.41
26376;BME280;30544;42.196;24.336;2024-01-16T09:14:54;98598.25;;;10.47;46.57
26376;BME280;30544;42.196;24.336;2024-01-16T09:17:23;98602.63;;;10.43;46.22
26376;BME280;30544;42.196;24.336;2024-01-16T09:19:50;98606.06;;;10.55;46.61
26376;BME280;30544;42.196;24.336;2024-01-16T09:22:17;98600.53;;;10.55;46.96
26376;BME280;30544;42.196;24.336;2024-01-16T09:24:43;98609.84;;;10.44;45.66
26376;BME280;30544;42.196;24.336;2024-01-16T09:27:10;98617.69;;;10.52;45.16
26376;BME280;30544;42.196;24.336;2024-01-16T09:29:39;98610.88;;;10.65;44.52
26376;BME280;30544;42.196;24.336;2024-01-16T09:32:05;98606.19;;;10.66;44.52
26376;BME280;30544;42.196;24.336;2024-01-16T09:34:34;98615.09;;;10.73;44.34
26376;BME280;30544;42.196;24.336;2024-01-16T09:37:00;98608.56;;;10.84;44.71
26376;BME280;30544;42.196;24.336;2024-01-16T09:39:28;98608.28;;;10.85;44.34
26376;BME280;30544;42.196;24.336;2024-01-16T09:41:55;98617.97;;;10.83;43.88
26376;BME280;30544;42.196;24.336;2024-01-16T09:44:28;98603.16;;;11.04;44.02
26376;BME280;30544;42.196;24.336;2024-01-16T09:46:55;98615.75;;;11.12;43.55
26376;BME280;30544;42.196;24.336;2024-01-16T09:49:22;98624.34;;;11.15;42.82
26376;BME280;30544;42.196;24.336;2024-01-16T09:51:50;98629.56;;;11.07;42.84
26376;BME280;30544;42.196;24.336;2024-01-16T09:54:17;98633.44;;;11.06;42.66
26376;BME280;30544;42.196;24.336;2024-01-16T09:56:44;98637.25;;;10.95;42.35
26376;BME280;30544;42.196;24.336;2024-01-16T09:59:12;98653.56;;;10.91;42.17
26376;BME280;30544;42.196;24.336;2024-01-16T10:01:42;98642.78;;;10.95;42.35
26376;BME280;30544;42.196;24.336;2024-01-16T10:04:09;98636.78;;;11.08;42.39
26376;BME280;30544;42.196;24.336;2024-01-16T10:06:35;98658.47;;;11.11;41.82
26376;BME280;30544;42.196;24.336;2024-01-16T10:09:06;98655.91;;;11.04;41.30
26376;BME280;30544;42.196;24.336;2024-01-16T10:11:32;98667.38;;;10.86;41.84
26376;BME280;30544;42.196;24.336;2024-01-16T10:13:59;98666.28;;;10.87;41.60
26376;BME280;30544;42.196;24.336;2024-01-16T10:16:40;98658.16;;;10.75;41.08
26376;BME280;30544;42.196;24.336;2024-01-16T10:19:21;98662.09;;;10.58;41.61
26376;BME280;30544;42.196;24.336;2024-01-16T10:21:47;98659.81;;;10.49;41.51
26376;BME280;30544;42.196;24.336;2024-01-16T10:24:16;98663.00;;;10.63;41.26
26376;BME280;30544;42.196;24.336;2024-01-16T10:26:42;98669.34;;;10.59;40.87
26376;BME280;30544;42.196;24.336;2024-01-16T10:29:09;98668.56;;;10.63;41.33
26376;BME280;30544;42.196;24.336;2024-01-16T10:31:36;98668.81;;;10.62;40.71
26376;BME280;30544;42.196;24.336;2024-01-16T10:34:09;98670.66;;;10.78;41.27
26376;BME280;30544;42.196;24.336;2024-01-16T10:36:44;98663.56;;;10.92;40.59
26376;BME280;30544;42.196;24.336;2024-01-16T10:39:11;98671.31;;;10.90;40.92
26376;BME280;30544;42.196;24.336;2024-01-16T10:41:39;98668.84;;;10.94;41.12
26376;BME280;30544;42.196;24.336;2024-01-16T10:44:07;98671.69;;;10.99;40.89
26376;BME280;30544;42.196;24.336;2024-01-16T10:46:34;98671.00;;;11.19;40.96
26376;BME280;30544;42.196;24.336;2024-01-16T10:49:01;98669.72;;;11.31;40.80
26376;BME280;30544;42.196;24.336;2024-01-16T10:51:28;98676.38;;;10.98;40.00
26376;BME280;30544;42.196;24.336;2024-01-16T10:53:57;98682.22;;;11.29;39.91
26376;BME280;30544;42.196;24.336;2024-01-16T10:56:24;98674.00;;;11.44;39.62
26376;BME280;30544;42.196;24.336;2024-01-16T10:58:57;98676.56;;;11.56;39.54
26376;BME280;30544;42.196;24.336;2024-01-16T11:01:24;98672.72;;;11.62;39.43
26376;BME280;30544;42.196;24.336;2024-01-16T11:03:51;98683.22;;;11.55;38.70
26376;BME280;30544;42.196;24.336;2024-01-16T11:06:22;98680.97;;;11.52;39.30
26376;BME280;30544;42.196;24.336;2024-01-16T11:08:49;98679.84;;;11.48;38.53
26376;BME280;30544;42.196;24.336;2024-01-16T11:11:16;98682.13;;;11.56;38.46
26376;BME280;30544;42.196;24.336;2024-01-16T11:13:44;98682.75;;;11.63;38.62
26376;BME280;30544;42.196;24.336;2024-01-16T11:16:13;98685.63;;;11.41;39.02
26376;BME280;30544;42.196;24.336;2024-01-16T11:18:39;98689.00;;;11.43;38.17
26376;BME280;30544;42.196;24.336;2024-01-16T11:21:07;98680.97;;;11.52;38.50
26376;BME280;30544;42.196;24.336;2024-01-16T11:23:34;98688.03;;;11.64;38.15
26376;BME280;30544;42.196;24.336;2024-01-16T11:26:03;98694.91;;;11.57;38.15
26376;BME280;30544;42.196;24.336;2024-01-16T11:28:50;98696.91;;;11.66;38.39
26376;BME280;30544;42.196;24.336;2024-01-16T11:31:28;98703.41;;;11.77;38.04
26376;BME280;30544;42.196;24.336;2024-01-16T11:33:55;98695.84;;;11.72;37.84
26376;BME280;30544;42.196;24.336;2024-01-16T11:39:07;98699.16;;;11.69;37.30
26376;BME280;30544;42.196;24.336;2024-01-16T11:41:52;98704.50;;;11.76;37.37
26376;BME280;30544;42.196;24.336;2024-01-16T11:44:39;98700.53;;;11.67;37.08
26376;BME280;30544;42.196;24.336;2024-01-16T11:47:15;98704.16;;;11.72;37.22
26376;BME280;30544;42.196;24.336;2024-01-16T11:49:44;98696.50;;;11.80;36.96
26376;BME280;30544;42.196;24.336;2024-01-16T11:52:10;98710.75;;;11.93;37.31
26376;BME280;30544;42.196;24.336;2024-01-16T11:54:38;98709.38;;;11.96;37.08
26376;BME280;30544;42.196;24.336;2024-01-16T11:59:59;98709.31;;;11.86;36.98
26376;BME280;30544;42.196;24.336;2024-01-16T12:02:34;98712.63;;;11.88;37.17
26376;BME280;30544;42.196;24.336;2024-01-16T12:05:05;98720.41;;;11.86;37.14
26376;BME280;30544;42.196;24.336;2024-01-16T12:07:42;98714.44;;;12.09;37.26
26376;BME280;30544;42.196;24.336;2024-01-16T12:10:08;98719.09;;;11.93;36.50
26376;BME280;30544;42.196;24.336;2024-01-16T12:12:35;98722.59;;;11.79;36.71
26376;BME280;30544;42.196;24.336;2024-01-16T12:15:07;98726.59;;;11.93;36.36
26376;BME280;30544;42.196;24.336;2024-01-16T12:17:40;98724.84;;;11.82;36.76
26376;BME280;30544;42.196;24.336;2024-01-16T12:20:18;98724.19;;;11.74;36.89
26376;BME280;30544;42.196;24.336;2024-01-16T12:22:44;98732.50;;;11.69;37.14
26376;BME280;30544;42.196;24.336;2024-01-16T12:25:11;98727.91;;;11.48;36.74
26376;BME280;30544;42.196;24.336;2024-01-16T12:27:38;98731.34;;;11.60;36.74
26376;BME280;30544;42.196;24.336;2024-01-16T12:30:07;98733.84;;;11.62;36.91
26376;BME280;30544;42.196;24.336;2024-01-16T12:32:34;98758.50;;;11.58;37.31
26376;BME280;30544;42.196;24.336;2024-01-16T12:35:02;98749.66;;;11.61;37.23
26376;BME280;30544;42.196;24.336;2024-01-16T12:37:29;98763.81;;;11.60;37.21
26376;BME280;30544;42.196;24.336;2024-01-16T12:39:56;98768.28;;;11.61;37.05
26376;BME280;30544;42.196;24.336;2024-01-16T12:42:22;98758.78;;;11.57;37.62
26376;BME280;30544;42.196;24.336;2024-01-16T12:44:50;98766.66;;;11.70;37.00
26376;BME280;30544;42.196;24.336;2024-01-16T12:47:16;98771.94;;;11.71;36.97
26376;BME280;30544;42.196;24.336;2024-01-16T12:49:44;98772.34;;;11.80;36.38
26376;BME280;30544;42.196;24.336;2024-01-16T12:52:19;98784.09;;;11.60;35.44
26376;BME280;30544;42.196;24.336;2024-01-16T12:54:46;98777.47;;;11.66;35.29
26376;BME280;30544;42.196;24.336;2024-01-16T12:57:17;98791.41;;;11.71;34.78
26376;BME280;30544;42.196;24.336;2024-01-16T12:59:45;98796.38;;;11.69;34.86
26376;BME280;30544;42.196;24.336;2024-01-16T13:02:20;98796.38;;;11.69;34.62
26376;BME280;30544;42.196;24.336;2024-01-16T13:04:48;98801.47;;;11.78;34.83